createdAt,value
2023-04-10T00:00:38.158Z,6.50
2023-04-10T00:03:05.897Z,6.50
2023-04-10T00:05:33.271Z,6.50
2023-04-10T00:08:00.870Z,6.50
2023-04-10T00:10:30.434Z,6.50
2023-04-10T00:12:58.933Z,6.50
2023-04-10T00:15:25.925Z,6.50
2023-04-10T00:17:55.242Z,6.50
2023-04-10T00:20:23.565Z,6.50
2023-04-10T00:22:50.720Z,6.50
2023-04-10T00:25:17.962Z,6.50
2023-04-10T00:27:44.973Z,6.60
2023-04-10T00:30:12.045Z,6.50
2023-04-10T00:32:39.079Z,6.40
2023-04-10T00:37:34.961Z,6.30
2023-04-10T00:40:02.047Z,6.20
2023-04-10T00:42:29.055Z,6.30
2023-04-10T00:44:56.044Z,6.30
2023-04-10T00:47:23.045Z,6.30
2023-04-10T00:49:50.457Z,6.30
2023-04-10T00:52:17.843Z,6.10
2023-04-10T00:54:44.931Z,6.00
2023-04-10T00:57:12.332Z,6.10
2023-04-10T01:02:07.423Z,5.80
2023-04-10T01:04:34.802Z,5.70
2023-04-10T01:07:21.559Z,5.70
2023-04-10T01:10:07.076Z,5.70
2023-04-10T01:12:58.670Z,5.60
2023-04-10T01:15:30.892Z,5.20
2023-04-10T01:18:07.431Z,4.90
2023-04-10T01:20:39.616Z,4.60
2023-04-10T01:23:47.972Z,4.40
2023-04-10T01:26:19.765Z,4.30
2023-04-10T01:28:53.841Z,4.10
2023-04-10T01:49:27.807Z,3.80
2023-04-10T01:52:02.395Z,3.70
2023-04-10T01:54:32.747Z,3.70
2023-04-10T01:57:02.156Z,3.60
2023-04-10T01:59:31.214Z,3.70
2023-04-10T02:02:02.044Z,3.70
2023-04-10T02:04:29.327Z,3.50
2023-04-10T02:07:07.697Z,3.60
2023-04-10T02:09:55.675Z,3.50
2023-04-10T02:12:30.282Z,3.50
2023-04-10T02:15:01.975Z,3.30
2023-04-10T02:17:31.188Z,3.30
2023-04-10T02:19:59.506Z,3.10
2023-04-10T02:22:27.700Z,2.90
2023-04-10T02:24:54.851Z,3.00
2023-04-10T02:27:36.291Z,3.00
2023-04-10T02:30:04.950Z,3.10
2023-04-10T02:32:34.770Z,3.20
2023-04-10T02:35:02.907Z,3.20
2023-04-10T02:37:31.389Z,3.10
2023-04-10T02:40:00.686Z,3.20
2023-04-10T02:42:32.295Z,3.20
2023-04-10T02:45:01.314Z,3.00
2023-04-10T02:47:34.150Z,3.00
2023-04-10T02:50:01.298Z,2.90
2023-04-10T02:52:33.021Z,2.90
2023-04-10T02:55:00.034Z,2.70
2023-04-10T02:57:32.197Z,2.80
2023-04-10T02:59:59.178Z,2.70
2023-04-10T03:02:28.433Z,2.80
2023-04-10T03:04:58.976Z,2.80
2023-04-10T03:07:28.165Z,2.60
2023-04-10T03:09:55.118Z,2.60
2023-04-10T03:12:22.216Z,2.70
2023-04-10T03:14:49.210Z,2.50
2023-04-10T03:17:16.189Z,2.50
2023-04-10T03:19:43.259Z,2.40
2023-04-10T03:22:11.087Z,2.40
2023-04-10T03:24:41.066Z,2.40
2023-04-10T03:27:08.118Z,2.40
2023-04-10T03:29:35.155Z,2.50
2023-04-10T03:32:02.432Z,2.50
2023-04-10T03:34:30.434Z,2.50
2023-04-10T03:36:57.448Z,2.50
2023-04-10T03:39:24.688Z,2.40
2023-04-10T03:41:51.700Z,2.20
2023-04-10T03:44:19.762Z,2.20
2023-04-10T03:46:46.760Z,2.20
2023-04-10T03:49:13.741Z,2.00
2023-04-10T03:51:41.140Z,1.90
2023-04-10T03:54:08.103Z,1.90
2023-04-10T03:56:35.361Z,1.90
2023-04-10T03:59:02.393Z,1.90
2023-04-10T04:01:32.710Z,2.10
2023-04-10T04:04:05.107Z,2.20
2023-04-10T04:06:50.448Z,2.30
2023-04-10T04:09:20.667Z,2.40
2023-04-10T04:12:08.127Z,2.50
2023-04-10T04:14:53.719Z,2.40
2023-04-10T04:17:23.330Z,2.20
2023-04-10T04:19:57.844Z,2.20
2023-04-10T04:22:44.808Z,2.10
2023-04-10T04:25:34.672Z,2.20
2023-04-10T04:28:04.353Z,2.00
2023-04-10T04:30:35.712Z,2.00
2023-04-10T04:33:25.582Z,2.00
2023-04-10T04:35:58.235Z,2.00
2023-04-10T04:38:55.492Z,1.90
2023-04-10T04:41:30.731Z,1.90
2023-04-10T04:44:10.298Z,1.90
2023-04-10T04:46:51.101Z,1.90
2023-04-10T04:49:40.981Z,1.90
2023-04-10T04:52:28.036Z,1.90
2023-04-10T04:55:17.668Z,1.90
2023-04-10T04:58:05.404Z,2.00
2023-04-10T05:00:44.527Z,2.00
2023-04-10T05:03:32.595Z,2.20
2023-04-10T05:06:22.913Z,2.70
2023-04-10T05:09:09.497Z,2.70
2023-04-10T05:12:06.006Z,2.50
2023-04-10T05:14:52.038Z,3.50
2023-04-10T05:17:37.362Z,3.60
2023-04-10T05:20:14.449Z,5.30
2023-04-10T05:22:56.152Z,6.70
2023-04-10T05:25:46.169Z,7.30
2023-04-10T05:28:19.593Z,7.30
2023-04-10T05:31:07.168Z,7.80
2023-04-10T05:33:50.691Z,8.30
2023-04-10T05:36:39.232Z,8.40
2023-04-10T05:39:20.577Z,8.90
2023-04-10T05:41:59.068Z,9.00
2023-04-10T05:44:31.498Z,8.90
2023-04-10T05:47:18.690Z,8.90
2023-04-10T05:49:57.599Z,9.10
2023-04-10T05:52:42.898Z,9.10
2023-04-10T05:55:33.088Z,9.40
2023-04-10T05:58:14.918Z,9.40
2023-04-10T06:00:59.315Z,9.80
2023-04-10T06:03:48.091Z,10.20
2023-04-10T06:06:17.256Z,10.50
2023-04-10T06:08:44.868Z,10.30
2023-04-10T06:11:11.964Z,10.40
2023-04-10T06:13:41.344Z,10.80
2023-04-10T06:16:09.122Z,11.30
2023-04-10T06:18:37.706Z,12.20
2023-04-10T06:21:05.056Z,11.70
2023-04-10T06:23:32.291Z,11.20
2023-04-10T06:26:00.352Z,10.80
2023-04-10T06:28:27.552Z,11.30
2023-04-10T06:30:58.268Z,11.40
2023-04-10T06:33:31.215Z,12.20
2023-04-10T06:35:59.115Z,12.50
2023-04-10T06:38:26.282Z,12.30
2023-04-10T06:40:53.517Z,12.20
2023-04-10T06:43:20.467Z,12.10
2023-04-10T06:45:48.804Z,12.00
2023-04-10T06:48:15.789Z,12.30
2023-04-10T06:50:42.919Z,11.50
2023-04-10T06:53:09.948Z,11.30
2023-04-10T06:55:37.624Z,11.10
2023-04-10T06:58:04.780Z,11.20
2023-04-10T07:02:59.293Z,11.60
2023-04-10T07:05:26.352Z,12.00
2023-04-10T07:07:53.423Z,12.30
2023-04-10T07:10:20.815Z,12.30
2023-04-10T07:12:47.936Z,12.20
2023-04-10T07:15:14.911Z,12.70
2023-04-10T07:17:42.499Z,12.90
2023-04-10T07:20:10.493Z,12.50
2023-04-10T07:22:37.628Z,12.50
2023-04-10T07:25:05.040Z,12.80
2023-04-10T07:27:32.261Z,13.40
2023-04-10T07:29:59.182Z,14.10
2023-04-10T07:32:26.945Z,13.90
2023-04-10T07:34:54.230Z,14.80
2023-04-10T07:37:21.305Z,15.00
2023-04-10T07:39:48.281Z,14.60
2023-04-10T07:42:15.390Z,14.50
2023-04-10T07:44:42.307Z,14.90
2023-04-10T07:49:36.791Z,14.40
2023-04-10T07:52:03.868Z,15.30
2023-04-10T07:54:34.432Z,15.00
2023-04-10T07:57:01.456Z,15.00
2023-04-10T07:59:28.786Z,14.70
2023-04-10T08:01:56.158Z,14.40
2023-04-10T08:04:23.567Z,14.50
2023-04-10T08:06:50.861Z,14.50
2023-04-10T08:09:17.931Z,14.60
2023-04-10T08:11:44.918Z,14.20
2023-04-10T08:14:13.449Z,14.20
2023-04-10T08:16:45.336Z,14.30
2023-04-10T08:19:12.502Z,14.00
2023-04-10T08:21:39.450Z,14.20
2023-04-10T08:24:06.568Z,14.30
2023-04-10T08:26:33.525Z,14.40
2023-04-10T08:29:00.963Z,14.40
2023-04-10T08:31:29.329Z,15.10
2023-04-10T08:33:57.163Z,14.90
2023-04-10T08:36:24.655Z,14.70
2023-04-10T08:38:51.588Z,15.10
2023-04-10T08:41:20.092Z,14.80
2023-04-10T08:43:47.433Z,14.80
2023-04-10T08:46:15.139Z,14.50
2023-04-10T08:49:03.966Z,14.90
2023-04-10T08:54:23.342Z,14.20
2023-04-10T08:56:53.995Z,15.00
2023-04-10T08:59:21.231Z,15.30
2023-04-10T09:01:49.089Z,14.90
2023-04-10T09:04:20.434Z,14.80
2023-04-10T09:06:47.701Z,14.60
2023-04-10T09:09:14.686Z,15.30
2023-04-10T09:11:56.459Z,15.10
2023-04-10T09:14:25.679Z,15.00
2023-04-10T09:16:55.097Z,15.20
2023-04-10T09:19:33.686Z,15.00
2023-04-10T09:22:01.071Z,14.90
2023-04-10T09:24:28.449Z,15.20
2023-04-10T09:26:56.249Z,14.80
2023-04-10T09:29:23.230Z,14.70
2023-04-10T09:31:51.357Z,14.80
2023-04-10T09:34:23.698Z,14.90
2023-04-10T09:36:59.870Z,15.60
2023-04-10T09:39:36.086Z,15.10
2023-04-10T09:42:03.108Z,15.50
2023-04-10T09:44:37.381Z,15.70
2023-04-10T09:47:22.976Z,15.40
2023-04-10T09:49:56.792Z,16.10
2023-04-10T09:52:29.115Z,16.30
2023-04-10T09:55:08.638Z,16.20
2023-04-10T09:57:36.422Z,16.30
2023-04-10T10:00:08.154Z,16.30
2023-04-10T10:02:41.716Z,16.80
2023-04-10T10:05:10.113Z,16.50
2023-04-10T10:07:38.735Z,16.40
2023-04-10T10:10:09.231Z,16.00
2023-04-10T10:20:32.900Z,16.10
2023-04-10T10:23:03.581Z,16.40
2023-04-10T10:25:31.823Z,16.30
2023-04-10T10:28:03.604Z,16.60
2023-04-10T10:30:33.865Z,17.30
2023-04-10T10:33:07.600Z,17.10
2023-04-10T10:35:38.057Z,17.20
2023-04-10T10:38:06.283Z,17.50
